createdAt,value
2023-05-17T00:03:01.221Z,12.15
2023-05-17T00:06:02.915Z,11.13
2023-05-17T00:09:04.650Z,10.90
2023-05-17T00:12:06.383Z,10.98
2023-05-17T00:15:09.396Z,13.23
2023-05-17T00:18:11.119Z,10.38
2023-05-17T00:21:12.815Z,11.63
2023-05-17T00:24:14.445Z,11.43
2023-05-17T00:27:16.188Z,11.63
2023-05-17T00:30:17.801Z,9.93
2023-05-17T00:33:19.472Z,14.55
2023-05-17T00:36:21.296Z,12.43
2023-05-17T00:39:22.932Z,11.65
2023-05-17T00:42:24.553Z,13.43
2023-05-17T00:45:26.394Z,12.03
2023-05-17T00:48:29.570Z,11.20
2023-05-17T00:51:32.135Z,10.80
2023-05-17T00:54:34.383Z,12.45
2023-05-17T00:57:36.716Z,15.32
2023-05-17T01:00:38.698Z,13.73
2023-05-17T01:03:40.529Z,13.10
2023-05-17T01:06:42.196Z,13.38
2023-05-17T01:09:44.323Z,11.45
2023-05-17T01:13:00.582Z,12.73
2023-05-17T01:16:33.172Z,13.53
2023-05-17T01:19:59.664Z,17.63
2023-05-17T01:23:32.596Z,15.27
2023-05-17T01:26:44.076Z,12.98
2023-05-17T01:29:46.337Z,13.05
2023-05-17T01:32:48.085Z,11.87
2023-05-17T01:35:49.884Z,15.27
2023-05-17T01:38:51.692Z,12.63
2023-05-17T01:42:08.386Z,11.63
2023-05-17T01:45:16.207Z,12.27
2023-05-17T01:48:22.577Z,12.03
2023-05-17T01:51:33.420Z,12.88
2023-05-17T01:54:50.819Z,13.10
2023-05-17T01:57:55.855Z,11.23
2023-05-17T02:01:00.530Z,17.98
2023-05-17T02:04:02.285Z,26.53
2023-05-17T02:07:04.128Z,11.52
2023-05-17T02:10:07.970Z,14.02
2023-05-17T02:13:09.665Z,25.27
2023-05-17T02:16:11.986Z,28.02
2023-05-17T02:19:14.298Z,13.10
2023-05-17T02:22:16.015Z,15.25
2023-05-17T02:25:17.806Z,14.20
2023-05-17T02:28:19.446Z,17.50
2023-05-17T02:31:21.183Z,11.70
2023-05-17T02:34:23.186Z,11.63
2023-05-17T02:37:25.370Z,12.02
2023-05-17T02:40:27.083Z,14.10
2023-05-17T02:43:28.677Z,11.25
2023-05-17T02:46:30.437Z,15.07
2023-05-17T02:49:32.087Z,12.33
2023-05-17T02:52:33.719Z,13.98
2023-05-17T02:55:35.595Z,13.48
2023-05-17T02:58:37.208Z,13.18
2023-05-17T03:01:38.848Z,13.80
2023-05-17T03:04:40.624Z,13.17
2023-05-17T03:07:42.306Z,15.23
2023-05-17T03:10:43.919Z,13.02
2023-05-17T03:13:46.514Z,13.63
2023-05-17T03:16:48.141Z,13.65
2023-05-17T03:19:49.781Z,14.77
2023-05-17T03:22:51.436Z,14.40
2023-05-17T03:25:53.101Z,15.05
2023-05-17T03:28:54.807Z,13.95
2023-05-17T03:31:56.469Z,14.82
2023-05-17T03:34:58.190Z,14.87
2023-05-17T03:37:59.808Z,15.40
2023-05-17T03:41:01.613Z,15.35
2023-05-17T03:44:03.308Z,15.93
2023-05-17T03:47:05.176Z,15.75
2023-05-17T03:50:07.768Z,15.37
2023-05-17T03:53:09.936Z,15.60
2023-05-17T03:56:11.762Z,16.23
2023-05-17T03:59:13.883Z,16.63
2023-05-17T04:02:16.760Z,16.58
2023-05-17T04:05:19.451Z,14.93
2023-05-17T04:08:21.233Z,13.20
2023-05-17T04:11:24.371Z,14.02
2023-05-17T04:14:26.189Z,12.75
2023-05-17T04:17:28.214Z,11.60
2023-05-17T04:20:29.935Z,15.27
2023-05-17T04:23:35.498Z,12.20
2023-05-17T04:26:38.027Z,16.55
2023-05-17T04:29:40.949Z,17.80
2023-05-17T04:32:43.699Z,14.10
2023-05-17T04:35:46.577Z,18.80
2023-05-17T04:38:48.309Z,14.73
2023-05-17T04:41:49.908Z,17.42
2023-05-17T04:44:51.584Z,14.30
2023-05-17T04:47:53.286Z,14.05
2023-05-17T04:50:54.964Z,15.33
2023-05-17T04:53:56.964Z,15.55
2023-05-17T04:56:58.616Z,16.65
2023-05-17T05:00:02.177Z,13.75
2023-05-17T05:03:05.106Z,15.38
2023-05-17T05:06:07.048Z,16.43
2023-05-17T05:09:08.742Z,19.05
2023-05-17T05:12:11.160Z,13.77
2023-05-17T05:15:12.800Z,16.40
2023-05-17T05:18:14.613Z,16.48
2023-05-17T05:21:16.378Z,21.57
2023-05-17T05:24:17.958Z,18.70
2023-05-17T05:27:19.582Z,16.70
2023-05-17T05:30:24.039Z,16.10
2023-05-17T05:33:26.489Z,13.88
2023-05-17T05:36:28.158Z,14.33
2023-05-17T05:39:29.780Z,16.02
2023-05-17T05:42:32.503Z,15.18
2023-05-17T05:45:34.238Z,14.90
2023-05-17T05:48:39.448Z,14.70
2023-05-17T05:51:41.233Z,14.07
2023-05-17T05:54:42.937Z,16.33
2023-05-17T05:57:44.550Z,19.55
2023-05-17T06:00:47.253Z,14.90
2023-05-17T06:03:49.092Z,13.63
2023-05-17T06:06:51.293Z,12.37
2023-05-17T06:09:53.206Z,15.30
2023-05-17T06:12:54.898Z,11.43
2023-05-17T06:15:56.602Z,13.75
2023-05-17T06:18:58.321Z,11.43
2023-05-17T06:22:00.057Z,14.03
2023-05-17T06:25:01.830Z,13.43
2023-05-17T06:28:04.351Z,11.40
2023-05-17T06:31:06.432Z,13.38
2023-05-17T06:34:08.208Z,14.38
2023-05-17T06:37:10.071Z,15.10
2023-05-17T06:40:16.704Z,14.88
2023-05-17T06:43:18.692Z,12.57
2023-05-17T06:46:20.515Z,11.43
2023-05-17T06:49:22.389Z,14.93
2023-05-17T06:52:24.158Z,11.23
2023-05-17T06:55:25.773Z,15.85
2023-05-17T06:58:27.394Z,15.48
2023-05-17T07:01:29.114Z,16.80
2023-05-17T07:04:31.799Z,15.88
2023-05-17T07:07:35.259Z,18.17
2023-05-17T07:10:36.966Z,16.02
2023-05-17T07:13:38.762Z,13.90
2023-05-17T07:16:40.673Z,12.57
2023-05-17T07:19:43.026Z,17.13
2023-05-17T07:22:46.052Z,17.83
2023-05-17T07:25:47.829Z,18.75
2023-05-17T07:28:51.926Z,18.25
2023-05-17T07:31:53.647Z,14.65
2023-05-17T07:34:55.378Z,16.15
2023-05-17T07:37:57.223Z,19.30
2023-05-17T07:40:58.951Z,15.50
2023-05-17T07:44:00.704Z,16.45
2023-05-17T07:47:02.372Z,17.05
2023-05-17T07:50:04.659Z,18.13
2023-05-17T07:53:06.475Z,16.37
2023-05-17T07:56:08.203Z,17.60
2023-05-17T07:59:09.812Z,17.85
2023-05-17T08:02:11.499Z,17.50
2023-05-17T08:05:13.233Z,15.43
2023-05-17T08:08:14.947Z,15.80
2023-05-17T08:11:16.891Z,21.55
2023-05-17T08:14:22.022Z,14.20
2023-05-17T08:17:23.738Z,12.20
2023-05-17T08:20:25.578Z,16.73
2023-05-17T08:23:27.286Z,16.53
2023-05-17T08:26:28.915Z,14.90
2023-05-17T08:29:30.666Z,15.05
2023-05-17T08:32:32.385Z,14.75
2023-05-17T08:35:34.278Z,13.70
2023-05-17T08:38:36.040Z,15.43
2023-05-17T08:41:37.758Z,15.93
2023-05-17T08:44:39.475Z,16.92
2023-05-17T08:47:43.176Z,13.48
2023-05-17T08:50:47.447Z,15.85
2023-05-17T08:53:50.723Z,13.67
2023-05-17T08:56:56.878Z,14.55
2023-05-17T09:00:01.028Z,16.67
2023-05-17T09:03:02.831Z,14.02
2023-05-17T09:06:04.953Z,14.23
2023-05-17T09:09:09.576Z,15.07
2023-05-17T09:12:11.700Z,14.95
2023-05-17T09:15:19.202Z,12.48
2023-05-17T09:18:30.537Z,14.45
2023-05-17T09:21:32.806Z,14.38
2023-05-17T09:24:35.144Z,12.00
2023-05-17T09:27:36.787Z,12.13
2023-05-17T09:30:41.936Z,15.40
2023-05-17T09:33:48.262Z,13.00
2023-05-17T09:36:49.972Z,13.38
2023-05-17T09:39:52.418Z,13.80
2023-05-17T09:42:55.096Z,12.30
2023-05-17T09:45:58.043Z,11.73
2023-05-17T09:49:02.274Z,11.43
2023-05-17T09:52:08.374Z,11.85
2023-05-17T09:55:11.854Z,12.43
2023-05-17T09:58:14.144Z,10.10
2023-05-17T10:01:16.614Z,10.85
2023-05-17T10:04:23.229Z,10.50
2023-05-17T10:07:26.884Z,10.18
2023-05-17T10:10:30.059Z,9.80
2023-05-17T10:13:37.424Z,9.73
2023-05-17T10:16:39.630Z,11.77
2023-05-17T10:19:42.194Z,10.95
2023-05-17T10:22:44.045Z,12.60
2023-05-17T10:25:46.487Z,10.40
2023-05-17T10:28:50.390Z,9.00
2023-05-17T10:31:52.147Z,10.07
2023-05-17T10:35:15.346Z,9.55
2023-05-17T10:38:18.323Z,9.82
2023-05-17T10:41:27.589Z,9.53
2023-05-17T10:44:33.216Z,8.02
2023-05-17T10:47:35.213Z,9.05
2023-05-17T10:50:47.343Z,9.32
2023-05-17T10:54:18.526Z,8.15
2023-05-17T11:00:43.262Z,9.57
2023-05-17T11:03:45.785Z,7.63
2023-05-17T11:06:47.575Z,8.43
2023-05-17T11:09:50.299Z,7.95
2023-05-17T11:12:55.425Z,8.13
2023-05-17T11:16:08.037Z,7.55
2023-05-17T11:19:11.811Z,8.02
2023-05-17T11:22:16.171Z,7.60
2023-05-17T11:25:19.316Z,8.98
2023-05-17T11:28:22.389Z,8.77
2023-05-17T11:31:32.161Z,7.53
2023-05-17T11:34:34.212Z,7.88
2023-05-17T11:37:36.168Z,11.63
2023-05-17T11:40:38.842Z,7.80
2023-05-17T11:43:46.057Z,8.00
2023-05-17T11:46:47.766Z,7.38
2023-05-17T11:49:54.947Z,7.25
2023-05-17T11:53:00.197Z,7.28
2023-05-17T11:56:04.614Z,8.15
2023-05-17T11:59:06.394Z,8.17
2023-05-17T12:02:08.366Z,8.05
2023-05-17T12:05:10.213Z,8.95
2023-05-17T12:08:11.939Z,7.95
2023-05-17T12:11:18.618Z,8.00
2023-05-17T12:14:20.616Z,6.93
2023-05-17T12:17:35.440Z,6.75
2023-05-17T12:20:39.051Z,6.40
2023-05-17T12:23:43.904Z,8.60
2023-05-17T12:26:46.997Z,6.70
2023-05-17T12:29:48.593Z,7.40
2023-05-17T12:32:50.447Z,7.13
2023-05-17T12:35:52.640Z,6.35
2023-05-17T12:38:56.078Z,7.05
2023-05-17T12:41:57.773Z,6.13
2023-05-17T12:45:00.237Z,6.50
2023-05-17T12:48:02.061Z,6.55
2023-05-17T12:51:45.195Z,6.30
2023-05-17T12:54:47.368Z,7.13
2023-05-17T12:57:53.608Z,6.93
2023-05-17T13:01:03.365Z,5.70
2023-05-17T13:04:05.634Z,7.00
2023-05-17T13:07:07.482Z,7.07
2023-05-17T13:10:29.623Z,6.47
2023-05-17T13:13:33.720Z,6.50
2023-05-17T13:16:39.463Z,6.80
2023-05-17T13:19:41.748Z,5.32
2023-05-17T13:22:47.238Z,6.38
2023-05-17T13:25:49.040Z,6.63
2023-05-17T13:28:51.332Z,5.80
2023-05-17T13:31:53.051Z,5.83
2023-05-17T13:34:55.014Z,6.78
2023-05-17T13:37:57.893Z,7.60
2023-05-17T13:40:59.627Z,6.45
2023-05-17T13:44:01.345Z,7.57
2023-05-17T13:47:03.070Z,6.93
2023-05-17T13:50:04.967Z,8.13
2023-05-17T13:53:06.565Z,7.00
2023-05-17T13:56:08.398Z,9.10
2023-05-17T13:59:10.087Z,8.73
2023-05-17T14:02:11.825Z,6.60
2023-05-17T14:05:14.948Z,7.55
2023-05-17T14:08:17.548Z,7.40
2023-05-17T14:11:19.265Z,6.88
2023-05-17T14:14:20.900Z,7.00
2023-05-17T14:17:22.560Z,9.60
2023-05-17T14:20:24.270Z,6.18
2023-05-17T14:23:26.197Z,6.13
2023-05-17T14:26:27.832Z,5.97
2023-05-17T14:29:30.437Z,6.97
2023-05-17T14:32:32.140Z,5.50
2023-05-17T14:35:34.067Z,5.78
2023-05-17T14:38:37.063Z,5.78
2023-05-17T14:41:39.386Z,6.20
2023-05-17T14:44:41.257Z,6.15
2023-05-17T14:47:42.932Z,5.27
2023-05-17T14:50:44.625Z,6.05
2023-05-17T14:53:46.613Z,6.25
2023-05-17T14:56:49.044Z,4.53
2023-05-17T14:59:51.018Z,5.50
2023-05-17T15:02:52.679Z,6.43
2023-05-17T15:05:55.604Z,6.03
2023-05-17T15:08:57.760Z,5.00
2023-05-17T15:11:59.391Z,4.57
2023-05-17T15:15:01.103Z,6.10
2023-05-17T15:18:02.722Z,6.27
2023-05-17T15:21:04.694Z,3.80
2023-05-17T15:24:06.616Z,4.10
2023-05-17T15:27:08.315Z,4.88
2023-05-17T15:30:12.599Z,4.38
2023-05-17T15:33:15.561Z,3.60
2023-05-17T15:36:17.494Z,5.57
2023-05-17T15:39:19.175Z,4.53
2023-05-17T15:42:20.821Z,4.63
2023-05-17T15:45:22.443Z,4.43
2023-05-17T15:48:26.093Z,3.20
2023-05-17T15:51:27.969Z,4.63
2023-05-17T15:54:29.668Z,3.97
2023-05-17T15:57:31.354Z,3.45
2023-05-17T16:00:32.969Z,5.18
2023-05-17T16:03:34.831Z,3.00
2023-05-17T16:06:36.825Z,3.72
2023-05-17T16:09:38.640Z,3.47
2023-05-17T16:12:40.328Z,4.20
2023-05-17T16:15:41.920Z,3.95
2023-05-17T16:18:43.596Z,3.30
2023-05-17T16:21:47.288Z,2.55
2023-05-17T16:24:57.165Z,2.95
2023-05-17T16:27:59.056Z,3.72
2023-05-17T16:31:01.340Z,3.20
2023-05-17T16:34:03.088Z,3.50
2023-05-17T16:37:04.974Z,3.55
2023-05-17T16:40:07.460Z,3.50
2023-05-17T16:43:09.344Z,3.28
2023-05-17T16:46:10.961Z,3.67
2023-05-17T16:49:12.578Z,3.73
2023-05-17T16:52:14.169Z,4.13
2023-05-17T16:55:15.772Z,5.10
2023-05-17T16:58:17.581Z,4.57
2023-05-17T17:01:19.331Z,3.97
2023-05-17T17:04:21.486Z,4.07
2023-05-17T17:07:23.156Z,3.97
2023-05-17T17:10:24.763Z,4.00
2023-05-17T17:13:26.675Z,6.93
2023-05-17T17:16:29.224Z,6.70
2023-05-17T17:19:31.292Z,4.63
2023-05-17T17:22:32.887Z,5.07
2023-05-17T17:25:34.526Z,6.30
2023-05-17T17:28:36.118Z,5.10
2023-05-17T17:31:37.796Z,4.40
2023-05-17T17:34:39.392Z,5.27
2023-05-17T17:37:41.107Z,5.40
2023-05-17T17:40:42.734Z,5.15
2023-05-17T17:43:46.976Z,5.25
2023-05-17T17:46:49.009Z,6.63
2023-05-17T17:49:50.680Z,4.53
2023-05-17T17:52:52.284Z,5.20
2023-05-17T17:55:53.892Z,4.82
2023-05-17T17:58:56.161Z,5.50
2023-05-17T18:01:59.555Z,5.70
2023-05-17T18:05:01.417Z,5.33
2023-05-17T18:08:03.201Z,4.90
2023-05-17T18:11:05.072Z,5.15
2023-05-17T18:14:07.755Z,5.85
2023-05-17T18:17:10.474Z,5.70
2023-05-17T18:20:12.206Z,6.33
2023-05-17T18:23:13.902Z,6.13
2023-05-17T18:26:15.531Z,7.05
2023-05-17T18:29:17.140Z,6.15
2023-05-17T18:32:18.823Z,6.88
2023-05-17T18:35:20.638Z,6.20
2023-05-17T18:38:22.346Z,5.60
2023-05-17T18:41:24.388Z,5.93
2023-05-17T18:44:25.990Z,5.93
2023-05-17T18:47:27.979Z,5.60
2023-05-17T18:50:30.380Z,6.10
2023-05-17T18:53:32.303Z,7.70
2023-05-17T18:56:34.301Z,6.18
2023-05-17T18:59:36.120Z,5.22
2023-05-17T19:02:37.899Z,6.15
2023-05-17T19:05:39.629Z,6.63
2023-05-17T19:08:41.333Z,6.60
2023-05-17T19:11:42.944Z,8.05
2023-05-17T19:14:44.557Z,6.10
2023-05-17T19:17:46.380Z,6.20
2023-05-17T19:20:48.059Z,8.30
2023-05-17T19:23:49.654Z,7.40
2023-05-17T19:26:51.263Z,7.13
2023-05-17T19:29:52.904Z,6.57
2023-05-17T19:32:54.603Z,7.10
2023-05-17T19:35:56.405Z,8.23
2023-05-17T19:38:58.000Z,6.82
2023-05-17T19:41:59.615Z,5.90
2023-05-17T19:45:01.858Z,6.72
2023-05-17T19:48:07.274Z,6.72
2023-05-17T19:51:09.068Z,6.77
2023-05-17T19:54:10.921Z,6.15
2023-05-17T19:57:12.535Z,6.07
2023-05-17T20:00:14.517Z,7.10
2023-05-17T20:03:16.166Z,6.50
2023-05-17T20:06:17.825Z,7.30
2023-05-17T20:09:19.519Z,6.55
2023-05-17T20:12:21.250Z,7.07
2023-05-17T20:15:23.013Z,9.90
2023-05-17T20:18:27.536Z,7.18
2023-05-17T20:21:29.524Z,6.27
2023-05-17T20:24:31.276Z,6.85
2023-05-17T20:27:32.900Z,5.82
2023-05-17T20:30:34.569Z,10.30
2023-05-17T20:33:36.381Z,5.75
2023-05-17T20:36:38.013Z,5.60
2023-05-17T20:39:39.628Z,7.63
2023-05-17T20:42:42.746Z,5.82
2023-05-17T20:45:45.913Z,5.80
2023-05-17T20:48:48.485Z,5.07
2023-05-17T20:51:50.150Z,5.23
2023-05-17T20:54:52.356Z,5.82
2023-05-17T20:57:54.038Z,6.13
2023-05-17T21:00:56.979Z,5.07
2023-05-17T21:03:59.120Z,6.35
2023-05-17T21:07:00.885Z,6.30
2023-05-17T21:10:02.473Z,5.93
2023-05-17T21:13:04.117Z,7.57
2023-05-17T21:16:06.095Z,6.28
2023-05-17T21:19:08.835Z,5.47
2023-05-17T21:22:10.596Z,5.50
2023-05-17T21:25:12.190Z,5.80
2023-05-17T21:28:14.091Z,7.13
2023-05-17T21:31:16.017Z,5.95
2023-05-17T21:34:17.672Z,5.30
2023-05-17T21:37:19.370Z,4.77
2023-05-17T21:40:20.995Z,4.63
2023-05-17T21:43:22.641Z,5.60
2023-05-17T21:46:24.354Z,6.80
2023-05-17T21:49:26.113Z,5.32
2023-05-17T21:52:27.899Z,4.87
2023-05-17T21:55:40.992Z,5.82
2023-05-17T21:58:47.793Z,5.82
2023-05-17T22:01:49.475Z,5.20
2023-05-17T22:04:51.243Z,6.65
2023-05-17T22:07:52.927Z,7.17
2023-05-17T22:10:55.620Z,5.18
2023-05-17T22:13:58.121Z,5.20
2023-05-17T22:17:00.230Z,5.95
2023-05-17T22:20:05.622Z,6.57
2023-05-17T22:23:07.233Z,7.20
2023-05-17T22:26:09.597Z,10.45
2023-05-17T22:29:11.638Z,7.70
2023-05-17T22:32:13.383Z,9.02
2023-05-17T22:35:15.171Z,10.60
2023-05-17T22:38:16.775Z,13.57
2023-05-17T22:41:18.424Z,11.73
2023-05-17T22:44:21.906Z,7.65
2023-05-17T22:47:26.792Z,6.80
2023-05-17T22:50:34.554Z,6.47
2023-05-17T22:53:36.378Z,7.37
2023-05-17T22:56:38.436Z,7.47
2023-05-17T22:59:43.660Z,5.82
2023-05-17T23:02:45.378Z,8.30
2023-05-17T23:05:47.373Z,6.60
2023-05-17T23:08:49.704Z,5.60
2023-05-17T23:11:51.435Z,6.60
2023-05-17T23:14:53.073Z,5.70
2023-05-17T23:17:55.032Z,5.22
2023-05-17T23:20:56.610Z,4.93
2023-05-17T23:23:58.196Z,5.83
2023-05-17T23:26:59.848Z,6.95
2023-05-17T23:30:02.160Z,5.50
2023-05-17T23:33:05.025Z,5.50
2023-05-17T23:36:07.251Z,7.38
2023-05-17T23:39:09.464Z,5.27
2023-05-17T23:42:11.089Z,6.18
2023-05-17T23:45:12.878Z,6.57
2023-05-17T23:48:16.206Z,5.43
2023-05-17T23:51:21.150Z,6.13
2023-05-17T23:54:24.331Z,5.80
2023-05-17T23:57:26.127Z,5.80
